Time;durP1;ratioP1;P1;durP2;ratioP2;P2;SDS_P1;SDS_P2;PMS_P1;PMS_P2;Temp;Humidity;BMP_temperature;BMP_pressure;BME280_temperature;BME280_humidity;BME280_pressure;Samples;Min_cycle;Max_cycle;Signal;HPM_P1;HPM_P2
2023/06/29 00:01:55;;;;;;;2.02;0.90;;;;;;;16.78;65.84;99272.25;1796537;79;21134;-66
2023/06/29 00:04:25;;;;;;;1.60;0.98;;;;;;;16.75;66.12;99280.25;1740580;82;21234;-66
2023/06/29 00:06:55;;;;;;;5.03;1.10;;;;;;;16.73;66.26;99265.85;1807626;79;21593;-67
2023/06/29 00:09:24;;;;;;;2.00;1.15;;;;;;;16.70;66.42;99271.36;1802561;79;21234;-66
2023/06/29 00:11:54;;;;;;;3.08;1.10;;;;;;;16.67;66.62;99275.20;1737351;82;21583;-66
2023/06/29 00:14:23;;;;;;;2.72;1.10;;;;;;;16.64;66.93;99264.09;1806116;79;21190;-67
2023/06/29 00:16:53;;;;;;;1.40;0.95;;;;;;;16.63;67.11;99254.68;1806106;79;21610;-67
2023/06/29 00:19:22;;;;;;;2.22;1.10;;;;;;;16.63;67.22;99255.52;1805427;79;21178;-67
2023/06/29 00:21:51;;;;;;;2.22;1.15;;;;;;;16.59;67.63;99262.67;1810946;79;21119;-64
2023/06/29 00:24:19;;;;;;;4.50;1.17;;;;;;;16.54;68.58;99266.78;1737424;82;21151;-66
2023/06/29 00:26:49;;;;;;;2.90;1.02;;;;;;;16.46;69.60;99259.81;1807349;79;21170;-68
2023/06/29 00:29:18;;;;;;;3.50;1.00;;;;;;;16.39;70.40;99260.58;1807768;79;21135;-66
2023/06/29 00:31:46;;;;;;;1.50;1.00;;;;;;;16.32;70.98;99261.34;1805856;79;21107;-66
2023/06/29 00:34:16;;;;;;;1.50;0.90;;;;;;;16.31;71.67;99260.23;1806336;79;21142;-66
2023/06/29 00:36:45;;;;;;;2.77;1.02;;;;;;;16.30;71.92;99250.27;1737449;82;21640;-66
2023/06/29 00:39:15;;;;;;;1.25;0.90;;;;;;;16.28;72.20;99257.99;1806198;79;21099;-66
2023/06/29 00:41:44;;;;;;;1.50;1.00;;;;;;;16.25;72.73;99251.03;1807244;79;21134;-65
2023/06/29 00:44:14;;;;;;;1.95;1.00;;;;;;;16.20;73.01;99257.06;1720005;82;21132;-65
2023/06/29 00:46:43;;;;;;;3.40;1.40;;;;;;;16.19;73.68;99247.93;1807739;79;21091;-66
2023/06/29 00:49:12;;;;;;;4.28;1.50;;;;;;;16.17;74.05;99253.72;1810339;79;21134;-66
2023/06/29 00:51:40;;;;;;;2.50;1.57;;;;;;;16.16;74.41;99249.84;1807120;79;21115;-66
2023/06/29 00:54:09;;;;;;;3.40;1.20;;;;;;;16.13;74.80;99247.05;1737784;82;21170;-65
2023/06/29 00:56:38;;;;;;;3.67;1.80;;;;;;;16.10;75.12;99246.74;1804199;79;21583;-65
2023/06/29 00:59:07;;;;;;;3.60;1.47;;;;;;;16.05;75.78;99248.08;1807836;79;21134;-65
2023/06/29 01:01:39;;;;;;;3.40;1.42;;;;;;;16.02;76.61;99251.36;1805535;79;21095;-65
2023/06/29 01:04:08;;;;;;;3.75;1.57;;;;;;;16.00;76.80;99239.19;1737566;82;21120;-64
2023/06/29 01:06:44;;;;;;;2.17;1.10;;;;;;;15.99;77.17;99243.05;1798489;79;21562;-65
2023/06/29 01:09:12;;;;;;;2.22;1.10;;;;;;;15.94;77.56;99243.00;1740394;82;21190;-65
2023/06/29 01:11:41;;;;;;;1.45;0.90;;;;;;;15.88;78.11;99242.66;1806328;79;21107;-64
2023/06/29 01:14:11;;;;;;;2.00;1.20;;;;;;;15.85;78.67;99241.80;1807837;79;21282;-64
2023/06/29 01:16:40;;;;;;;2.67;1.40;;;;;;;15.82;79.51;99247.84;1740622;82;21123;-66
2023/06/29 01:19:12;;;;;;;2.30;1.40;;;;;;;15.71;80.70;99237.78;1806306;79;21166;-65
2023/06/29 01:21:46;;;;;;;2.30;1.35;;;;;;;15.65;81.55;99236.06;1799143;79;21177;-66
2023/06/29 01:24:14;;;;;;;1.40;1.10;;;;;;;15.61;82.19;99235.75;1810836;79;21147;-66
2023/06/29 01:26:43;;;;;;;3.95;1.30;;;;;;;15.55;83.17;99234.80;1743460;82;21562;-65
2023/06/29 01:29:24;;;;;;;2.40;1.30;;;;;;;15.49;83.85;99234.45;1806162;79;21158;-65
2023/06/29 01:32:00;;;;;;;1.95;1.00;;;;;;;15.44;84.82;99221.97;1802552;79;21582;-65
2023/06/29 01:34:29;;;;;;;1.85;1.05;;;;;;;15.40;85.73;99224.95;1730510;82;21095;-65
2023/06/29 01:37:12;;;;;;;1.70;1.17;;;;;;;15.34;86.15;99225.98;1806044;79;21107;-65
2023/06/29 01:39:57;;;;;;;4.55;1.67;;;;;;;15.30;86.53;99224.83;1798407;79;21127;-64
2023/06/29 01:42:26;;;;;;;2.42;1.40;;;;;;;15.29;87.12;99231.98;1744821;82;21128;-66
2023/06/29 01:44:56;;;;;;;2.65;1.20;;;;;;;15.31;87.78;99227.05;1805984;79;21166;-68
2023/06/29 01:47:25;;;;;;;1.65;1.10;;;;;;;15.32;88.20;99225.41;1737650;82;21182;-68
2023/06/29 01:49:53;;;;;;;1.98;1.15;;;;;;;15.26;88.70;99221.47;1806054;79;21190;-68
2023/06/29 01:52:22;;;;;;;1.98;1.10;;;;;;;15.22;89.13;99228.05;1809487;79;21095;-72
2023/06/29 01:54:51;;;;;;;2.67;1.20;;;;;;;15.19;89.75;99228.55;1737516;82;21155;-68
2023/06/29 01:57:20;;;;;;;2.72;1.00;;;;;;;15.15;90.11;99229.61;1806061;79;21648;-67
2023/06/29 01:59:49;;;;;;;3.83;1.15;;;;;;;15.15;90.67;99224.64;1806548;79;21147;-66
2023/06/29 02:02:18;;;;;;;2.42;1.15;;;;;;;15.13;91.06;99225.45;1739106;82;21571;-67
2023/06/29 02:04:47;;;;;;;1.95;1.20;;;;;;;15.11;91.43;99225.70;1807964;79;21115;-66
2023/06/29 02:07:16;;;;;;;1.50;1.17;;;;;;;15.10;91.99;99223.20;1743668;82;21187;-67
2023/06/29 02:09:45;;;;;;;2.67;1.35;;;;;;;15.08;92.15;99221.23;1806154;79;21095;-67
2023/06/29 02:12:15;;;;;;;2.00;1.02;;;;;;;15.09;92.54;99220.14;1740522;82;21135;-66
2023/06/29 02:14:44;;;;;;;2.45;1.15;;;;;;;15.09;92.77;99217.39;1806239;79;21099;-66
2023/06/29 02:17:13;;;;;;;1.95;1.32;;;;;;;15.08;92.97;99215.72;1739137;82;21248;-65
2023/06/29 02:19:41;;;;;;;20.65;12.65;;;;;;;15.12;93.31;99221.02;1803896;79;21112;-65
2023/06/29 02:22:10;;;;;;;15.05;9.23;;;;;;;15.15;93.52;99217.74;1732962;82;21579;-65
2023/06/29 02:24:39;;;;;;;12.65;7.30;;;;;;;15.13;93.51;99218.00;1806166;79;21162;-66
2023/06/29 02:27:08;;;;;;;7.17;3.80;;;;;;;15.14;93.82;99218.83;1739260;82;21214;-66
2023/06/29 02:29:38;;;;;;;4.62;2.80;;;;;;;15.14;94.06;99218.83;1802147;79;21158;-66
2023/06/29 02:32:07;;;;;;;5.70;3.42;;;;;;;15.12;94.10;99209.98;1738911;82;21155;-66
2023/06/29 02:34:37;;;;;;;6.58;2.95;;;;;;;15.13;94.43;99211.65;1809421;79;21107;-66
2023/06/29 02:37:08;;;;;;;5.50;5.00;;;;;;;15.13;94.59;99211.11;1806233;79;21088;-65
2023/06/29 02:39:37;;;;;;;9.40;6.15;;;;;;;15.14;94.87;99211.94;1806178;79;21147;-65
2023/06/29 02:42:06;;;;;;;5.33;4.28;;;;;;;15.16;94.97;99208.37;1739675;82;21159;-66
2023/06/29 02:44:35;;;;;;;4.40;2.40;;;;;;;15.18;95.02;99213.09;1737114;82;21190;-64
2023/06/29 02:47:05;;;;;;;3.22;2.17;;;;;;;15.16;95.09;99208.37;1737659;82;21219;-66
2023/06/29 02:49:33;;;;;;;4.10;2.05;;;;;;;15.15;95.32;99208.09;1806142;79;21178;-65
2023/06/29 02:52:03;;;;;;;3.67;1.80;;;;;;;15.16;95.62;99211.97;1737057;82;21240;-66
2023/06/29 02:54:32;;;;;;;2.42;1.60;;;;;;;15.16;95.74;99208.37;1809293;79;21111;-66
2023/06/29 02:57:01;;;;;;;3.10;1.67;;;;;;;15.18;96.00;99199.30;1737613;82;21220;-66
2023/06/29 02:59:30;;;;;;;1.65;1.32;;;;;;;15.20;96.16;99199.88;1806129;79;21555;-68
2023/06/29 03:02:01;;;;;;;1.50;1.20;;;;;;;15.21;96.18;99198.78;1737248;82;21141;-65
2023/06/29 03:04:32;;;;;;;1.67;1.37;;;;;;;15.20;96.28;99188.29;1812439;79;21174;-66
2023/06/29 03:07:01;;;;;;;2.80;1.60;;;;;;;15.21;96.28;99193.27;1806183;79;21199;-65
2023/06/29 03:09:30;;;;;;;3.70;1.35;;;;;;;15.20;96.57;99196.56;1737560;82;21150;-66
2023/06/29 03:12:00;;;;;;;3.67;2.00;;;;;;;15.23;96.87;99190.53;1805924;79;21119;-67
2023/06/29 03:14:30;;;;;;;3.60;1.70;;;;;;;15.28;96.94;99189.77;1741991;82;21112;-68
2023/06/29 03:16:58;;;;;;;4.60;2.50;;;;;;;15.30;97.04;99193.09;1806244;79;21572;-68
2023/06/29 03:19:27;;;;;;;4.87;2.60;;;;;;;15.31;97.10;99190.63;1806282;79;21142;-66
2023/06/29 03:21:56;;;;;;;4.78;2.40;;;;;;;15.32;96.91;99195.59;1740515;82;21155;-67
2023/06/29 03:24:25;;;;;;;5.40;2.62;;;;;;;15.29;96.77;99191.42;1806303;79;21218;-65
2023/06/29 03:26:54;;;;;;;5.58;2.27;;;;;;;15.29;96.93;99196.11;1737459;82;21222;-66
2023/06/29 03:29:23;;;;;;;4.17;2.37;;;;;;;15.31;97.13;99203.04;1804258;79;21519;-63
2023/06/29 03:31:52;;;;;;;3.83;2.40;;;;;;;15.31;97.08;99196.14;1743699;82;21185;-65
2023/06/29 03:34:22;;;;;;;7.45;2.60;;;;;;;15.33;97.24;99202.23;1806287;79;21127;-65
2023/06/29 03:36:51;;;;;;;5.62;2.47;;;;;;;15.35;97.36;99205.58;1806069;79;21106;-67
2023/06/29 03:39:20;;;;;;;9.38;3.55;;;;;;;15.37;97.23;99200.63;1809261;79;21127;-65
2023/06/29 03:41:50;;;;;;;8.93;4.08;;;;;;;15.36;96.99;99206.41;1743274;82;21151;-66
2023/06/29 03:44:19;;;;;;;6.92;2.83;;;;;;;15.35;97.08;99200.05;1802408;79;21555;-65
2023/06/29 03:46:48;;;;;;;7.10;3.80;;;;;;;15.36;97.26;99200.34;1737519;82;21179;-65
2023/06/29 03:49:16;;;;;;;6.70;3.40;;;;;;;15.34;97.44;99195.63;1806109;79;21554;-65
2023/06/29 03:51:46;;;;;;;6.75;3.35;;;;;;;15.35;97.58;99199.22;1806090;79;21194;-66
2023/06/29 03:54:16;;;;;;;7.97;3.90;;;;;;;15.37;97.78;99196.48;1739311;82;21132;-65
2023/06/29 03:56:45;;;;;;;8.50;3.98;;;;;;;15.36;97.75;99196.20;1805935;79;21131;-65
2023/06/29 03:59:13;;;;;;;9.10;4.10;;;;;;;15.36;97.84;99192.06;1737533;82;21135;-65
2023/06/29 04:01:43;;;;;;;9.18;4.15;;;;;;;15.40;98.17;99194.59;1812500;79;21166;-64
2023/06/29 04:04:12;;;;;;;5.67;3.55;;;;;;;15.43;98.19;99194.62;1737430;82;21609;-65
2023/06/29 04:06:42;;;;;;;9.60;4.20;;;;;;;15.44;98.24;99192.98;1805947;79;21134;-66
2023/06/29 04:09:11;;;;;;;9.13;4.47;;;;;;;15.47;98.29;99196.60;1740594;82;21136;-64
2023/06/29 04:11:40;;;;;;;13.18;5.37;;;;;;;15.47;98.45;99200.74;1806007;79;21146;-65
2023/06/29 04:14:09;;;;;;;16.37;6.72;;;;;;;15.49;98.52;99204.08;1732703;82;21179;-65
2023/06/29 04:16:38;;;;;;;17.00;6.80;;;;;;;15.51;98.61;99192.78;1806734;79;21088;-65
2023/06/29 04:19:08;;;;;;;13.83;6.50;;;;;;;15.52;98.70;99196.66;1808476;79;21161;-65
2023/06/29 04:21:40;;;;;;;13.68;6.08;;;;;;;15.54;98.78;99198.61;1740815;82;21170;-65
2023/06/29 04:24:09;;;;;;;14.65;6.33;;;;;;;15.59;98.95;99192.89;1813736;79;21155;-65
2023/06/29 04:26:38;;;;;;;20.17;7.03;;;;;;;15.64;99.03;99199.33;1801651;79;21785;-65
2023/06/29 04:29:07;;;;;;;15.08;6.15;;;;;;;15.69;98.93;99197.17;1737903;82;21151;-65
2023/06/29 04:31:37;;;;;;;14.15;6.00;;;;;;;15.73;98.84;99199.70;1806252;79;21087;-65
2023/06/29 04:34:06;;;;;;;17.30;6.37;;;;;;;15.75;98.53;99198.34;1741865;82;21547;-65
2023/06/29 04:36:37;;;;;;;14.75;5.87;;;;;;;15.78;98.31;99200.58;1806071;79;21147;-64
2023/06/29 04:39:06;;;;;;;13.35;5.80;;;;;;;15.83;98.14;99202.56;1737769;82;21142;-65
2023/06/29 04:41:36;;;;;;;13.75;6.15;;;;;;;15.82;97.65;99194.82;1809506;79;21632;-66
2023/06/29 04:44:06;;;;;;;9.53;4.65;;;;;;;15.82;97.67;99200.89;1744800;82;21692;-67
2023/06/29 04:46:40;;;;;;;8.93;4.87;;;;;;;15.85;97.95;99201.20;1809206;79;21199;-66
2023/06/29 04:49:10;;;;;;;10.65;4.72;;;;;;;15.91;97.98;99204.84;1743671;82;21139;-65
2023/06/29 04:51:40;;;;;;;11.88;4.67;;;;;;;15.91;97.87;99208.99;1806309;79;21160;-65
2023/06/29 04:54:11;;;;;;;9.13;4.92;;;;;;;15.92;97.65;99201.53;1802065;79;21103;-66
2023/06/29 04:56:40;;;;;;;9.83;4.47;;;;;;;15.93;97.76;99205.42;1737631;82;21571;-64
2023/06/29 04:59:09;;;;;;;9.23;4.45;;;;;;;15.96;97.69;99206.28;1802632;79;21135;-66
2023/06/29 05:01:39;;;;;;;10.10;4.72;;;;;;;15.97;97.69;99202.97;1740394;82;21131;-66
2023/06/29 05:04:07;;;;;;;6.08;3.90;;;;;;;16.00;97.73;99213.50;1806034;79;21593;-64
2023/06/29 05:06:38;;;;;;;9.10;4.40;;;;;;;16.02;97.77;99198.32;1812415;79;21127;-65
2023/06/29 05:09:06;;;;;;;8.23;4.78;;;;;;;16.01;97.51;99199.97;1807994;79;21527;-65
2023/06/29 05:11:37;;;;;;;7.03;4.35;;;;;;;16.00;97.59;99200.52;1737476;82;21183;-65
2023/06/29 05:14:07;;;;;;;8.78;4.78;;;;;;;16.02;97.70;99203.84;1800622;79;21100;-65
2023/06/29 05:16:36;;;;;;;7.60;4.42;;;;;;;16.05;97.89;99200.56;1737664;82;21142;-66
2023/06/29 05:19:05;;;;;;;9.65;4.47;;;;;;;16.09;97.99;99208.61;1803813;79;21111;-66
2023/06/29 05:21:34;;;;;;;9.90;4.85;;;;;;;16.12;97.97;99203.94;1730357;82;21151;-65
2023/06/29 05:24:03;;;;;;;7.87;4.20;;;;;;;16.14;97.82;99196.77;1805528;79;21185;-67
2023/06/29 05:26:33;;;;;;;10.25;4.87;;;;;;;16.15;97.54;99199.27;1807538;79;21092;-66
2023/06/29 05:29:03;;;;;;;7.47;4.62;;;;;;;16.20;97.53;99199.02;1739080;82;21262;-67
2023/06/29 05:31:33;;;;;;;6.95;4.12;;;;;;;16.22;97.12;99195.45;1805646;79;21127;-65
2023/06/29 05:34:02;;;;;;;7.45;4.60;;;;;;;16.23;96.79;99192.97;1739052;82;21571;-65
2023/06/29 05:36:32;;;;;;;7.70;4.22;;;;;;;16.23;96.35;99186.89;1805523;79;21127;-66
2023/06/29 05:39:01;;;;;;;9.00;4.72;;;;;;;16.24;95.96;99194.63;1737018;82;21131;-67
2023/06/29 05:41:30;;;;;;;9.15;4.62;;;;;;;16.29;96.12;99201.61;1807999;79;21116;-65
2023/06/29 05:44:00;;;;;;;8.00;4.50;;;;;;;16.34;96.24;99192.81;1806099;79;21535;-66
2023/06/29 05:46:30;;;;;;;9.48;5.17;;;;;;;16.40;96.02;99193.13;1737549;82;21158;-66
2023/06/29 05:48:58;;;;;;;7.33;4.40;;;;;;;16.49;96.02;99200.38;1806310;79;21592;-67
2023/06/29 05:51:27;;;;;;;8.93;4.92;;;;;;;16.59;95.79;99194.92;1743570;82;21571;-65
2023/06/29 05:53:56;;;;;;;11.83;4.92;;;;;;;16.69;95.56;99201.94;1806008;79;21111;-66
2023/06/29 05:56:25;;;;;;;8.35;4.42;;;;;;;16.78;95.01;99196.18;1800187;79;21098;-65
2023/06/29 05:58:53;;;;;;;9.18;4.97;;;;;;;16.82;94.26;99195.09;1805871;79;21108;-65
2023/06/29 06:01:22;;;;;;;11.45;5.03;;;;;;;16.85;93.36;99196.48;1739319;82;21159;-65
2023/06/29 06:03:51;;;;;;;9.60;5.03;;;;;;;16.87;92.88;99193.73;1806184;79;21107;-66
2023/06/29 06:06:20;;;;;;;7.62;5.00;;;;;;;16.89;92.50;99194.85;1743821;82;21612;-66
2023/06/29 06:08:49;;;;;;;13.50;5.97;;;;;;;16.92;92.52;99195.73;1806367;79;21186;-64
2023/06/29 06:11:18;;;;;;;10.25;5.40;;;;;;;16.94;92.59;99194.91;1737430;82;21620;-65
2023/06/29 06:13:47;;;;;;;14.78;7.78;;;;;;;16.94;92.85;99201.28;1806383;79;21119;-65
2023/06/29 06:16:16;;;;;;;8.50;4.45;;;;;;;16.96;93.17;99206.55;1737572;82;21227;-65
2023/06/29 06:18:44;;;;;;;9.75;5.35;;;;;;;16.97;93.29;99207.66;1805955;79;21155;-64
2023/06/29 06:21:13;;;;;;;8.60;4.58;;;;;;;17.00;93.60;99202.97;1737436;82;21123;-65
2023/06/29 06:23:42;;;;;;;8.43;4.47;;;;;;;17.06;93.95;99209.36;1813632;79;21684;-66
2023/06/29 06:26:11;;;;;;;10.03;5.17;;;;;;;17.09;94.00;99202.73;1809605;79;21115;-65
2023/06/29 06:28:41;;;;;;;8.45;5.25;;;;;;;17.13;94.06;99208.56;1737565;82;21151;-64
2023/06/29 06:31:10;;;;;;;9.53;4.30;;;;;;;17.17;93.88;99205.54;1803806;79;21138;-65
2023/06/29 06:33:41;;;;;;;11.10;5.10;;;;;;;17.18;93.78;99204.44;1738702;82;21583;-67
2023/06/29 06:36:11;;;;;;;11.68;4.58;;;;;;;17.19;93.94;99199.19;1806068;79;21119;-67
2023/06/29 06:38:41;;;;;;;8.10;4.50;;;;;;;17.21;94.26;99198.36;1737210;82;21099;-68
2023/06/29 06:41:12;;;;;;;9.60;4.55;;;;;;;17.24;94.68;99201.97;1806189;79;21151;-67
2023/06/29 06:43:43;;;;;;;14.63;5.65;;;;;;;17.24;94.87;99199.75;1814026;79;21166;-67
2023/06/29 06:46:12;;;;;;;9.95;4.87;;;;;;;17.24;94.90;99203.36;1738985;82;21239;-67
2023/06/29 06:48:41;;;;;;;12.33;6.15;;;;;;;17.20;95.12;99200.84;1783888;79;21162;-67
2023/06/29 06:51:11;;;;;;;12.03;5.95;;;;;;;17.19;95.41;99197.80;1737677;82;21194;-68
2023/06/29 06:53:40;;;;;;;11.93;6.42;;;;;;;17.18;95.98;99203.05;1807662;79;21543;-66
2023/06/29 06:56:09;;;;;;;15.88;7.12;;;;;;;17.15;96.04;99202.21;1737421;82;21131;-67
2023/06/29 06:58:38;;;;;;;12.78;6.35;;;;;;;17.16;96.63;99198.34;1814084;79;21573;-67
2023/06/29 07:01:08;;;;;;;12.47;6.90;;;;;;;17.17;97.22;99202.77;1809400;79;21536;-67
2023/06/29 07:03:37;;;;;;;13.35;6.65;;;;;;;17.19;97.61;99206.10;1812760;79;21087;-67
2023/06/29 07:06:06;;;;;;;8.08;4.87;;;;;;;17.21;97.33;99200.30;1739317;82;21159;-68
2023/06/29 07:08:36;;;;;;;11.43;5.10;;;;;;;17.27;97.62;99212.50;1785139;79;21542;-67
2023/06/29 07:11:06;;;;;;;8.08;4.17;;;;;;;17.29;97.26;99204.76;1737656;82;21104;-66
2023/06/29 07:13:35;;;;;;;7.45;3.90;;;;;;;17.30;97.00;99207.81;1806368;79;21119;-66
2023/06/29 07:16:06;;;;;;;6.65;4.30;;;;;;;17.29;96.48;99201.99;1796439;80;21151;-66
2023/06/29 07:18:36;;;;;;;6.72;4.03;;;;;;;17.28;96.26;99205.86;1737606;82;21147;-66
2023/06/29 07:21:06;;;;;;;5.87;3.87;;;;;;;17.32;96.46;99206.98;1806048;79;21526;-66
2023/06/29 07:23:38;;;;;;;7.40;3.90;;;;;;;17.35;96.36;99205.06;1773591;79;21151;-67
2023/06/29 07:26:09;;;;;;;7.70;3.90;;;;;;;17.37;95.89;99215.31;1737534;82;21131;-67
2023/06/29 07:28:39;;;;;;;5.65;3.60;;;;;;;17.37;95.58;99210.33;1811128;79;21087;-65
2023/06/29 07:31:09;;;;;;;4.70;3.77;;;;;;;17.39;95.75;99205.34;1800372;79;21601;-68
2023/06/29 07:33:39;;;;;;;6.22;3.87;;;;;;;17.47;96.11;99215.06;1743251;82;21599;-67
2023/06/29 07:36:08;;;;;;;6.87;3.37;;;;;;;17.63;96.24;99211.27;1783862;79;21139;-68
2023/06/29 07:38:38;;;;;;;4.53;3.67;;;;;;;17.82;96.30;99206.91;1737415;82;21095;-65
2023/06/29 07:41:09;;;;;;;5.58;3.20;;;;;;;18.05;95.61;99216.09;1805982;79;21198;-65
2023/06/29 07:43:41;;;;;;;5.78;3.17;;;;;;;18.18;93.14;99211.11;1809722;79;21111;-68
2023/06/29 07:46:09;;;;;;;7.10;3.75;;;;;;;18.17;91.29;99218.59;1809057;79;21559;-65
2023/06/29 07:48:40;;;;;;;4.12;3.02;;;;;;;18.11;90.04;99219.70;1733032;82;21159;-67
2023/06/29 07:51:11;;;;;;;4.70;3.12;;;;;;;18.00;90.06;99223.02;1806180;79;21147;-66
2023/06/29 07:53:43;;;;;;;6.95;3.37;;;;;;;17.94;90.68;99222.73;1798777;79;21135;-65
2023/06/29 07:56:12;;;;;;;3.10;2.80;;;;;;;17.89;90.99;99226.88;1729005;82;21131;-66
2023/06/29 07:58:59;;;;;;;4.10;2.72;;;;;;;17.82;90.96;99222.15;1787932;79;21124;-68
2023/06/29 08:01:36;;;;;;;3.10;2.80;;;;;;;17.82;91.52;99223.53;1775500;80;21187;-66
2023/06/29 08:04:06;;;;;;;3.55;3.22;;;;;;;17.87;91.66;99217.17;1715961;82;21593;-68
2023/06/29 08:06:41;;;;;;;4.28;2.77;;;;;;;17.91;91.69;99227.98;1779619;80;21143;-67
2023/06/29 08:09:08;;;;;;;3.12;2.67;;;;;;;17.94;91.54;99224.11;1779997;80;21088;-70
2023/06/29 08:11:39;;;;;;;2.90;2.60;;;;;;;17.99;91.75;99227.45;1730689;82;21127;-69
2023/06/29 08:14:08;;;;;;;3.62;2.95;;;;;;;18.07;91.38;99229.67;1806115;79;21142;-68
2023/06/29 08:16:36;;;;;;;3.20;2.80;;;;;;;18.13;90.27;99220.81;1806119;79;21577;-68
2023/06/29 08:19:05;;;;;;;4.42;3.00;;;;;;;18.18;89.42;99230.52;1803822;79;21540;-71
2023/06/29 08:21:35;;;;;;;3.15;2.80;;;;;;;18.20;88.96;99232.45;1737365;82;21107;-68
2023/06/29 08:24:05;;;;;;;2.90;2.50;;;;;;;18.22;88.73;99233.88;1807397;79;21523;-70
2023/06/29 08:26:35;;;;;;;3.92;2.72;;;;;;;18.19;87.67;99228.02;1736998;82;21131;-70
2023/06/29 08:29:05;;;;;;;3.20;2.90;;;;;;;18.14;87.63;99235.78;1778876;79;21188;-72
2023/06/29 08:31:35;;;;;;;3.70;2.75;;;;;;;18.21;88.32;99234.98;1774221;80;21117;-69
2023/06/29 08:34:11;;;;;;;4.15;3.25;;;;;;;18.40;89.07;99236.66;1774487;80;21552;-69
2023/06/29 08:36:43;;;;;;;3.37;3.02;;;;;;;18.64;88.38;99229.46;1774629;80;21164;-70
2023/06/29 08:39:14;;;;;;;4.85;2.92;;;;;;;18.85;86.77;99226.65;1782570;80;21124;-71
2023/06/29 08:41:46;;;;;;;3.30;3.00;;;;;;;18.96;85.10;99231.93;1774276;80;21129;-70
2023/06/29 08:44:17;;;;;;;3.58;2.90;;;;;;;19.11;84.80;99221.89;1774615;80;21121;-70
2023/06/29 08:46:47;;;;;;;6.25;3.10;;;;;;;19.39;85.13;99226.78;1777112;80;21184;-71
2023/06/29 08:49:15;;;;;;;6.42;3.37;;;;;;;19.66;81.87;99223.66;1774339;80;21176;-68
2023/06/29 08:51:44;;;;;;;3.87;3.08;;;;;;;19.83;80.68;99226.90;1774432;80;21167;-70
2023/06/29 08:54:13;;;;;;;5.12;3.33;;;;;;;19.84;78.98;99236.07;1774193;80;21121;-69
2023/06/29 08:56:45;;;;;;;2.55;2.35;;;;;;;19.66;78.86;99231.17;1774674;80;21556;-70
2023/06/29 08:59:16;;;;;;;4.47;2.77;;;;;;;19.48;79.78;99231.19;1774573;80;21125;-69
2023/06/29 09:01:45;;;;;;;4.55;3.50;;;;;;;19.21;80.16;99217.70;1775712;80;21158;-69
2023/06/29 09:04:14;;;;;;;5.37;2.62;;;;;;;19.00;81.62;99224.70;1773826;80;21123;-69
2023/06/29 09:06:50;;;;;;;3.98;3.12;;;;;;;18.90;83.06;99218.34;1715463;83;21119;-68
2023/06/29 09:09:20;;;;;;;4.67;3.80;;;;;;;18.92;85.42;99216.12;1715697;83;21158;-69
2023/06/29 09:11:50;;;;;;;3.85;2.80;;;;;;;18.99;86.20;99218.05;1780017;80;21110;-68
2023/06/29 09:14:19;;;;;;;3.75;3.17;;;;;;;19.07;87.00;99212.47;1716031;83;21178;-67
2023/06/29 09:16:58;;;;;;;3.85;3.08;;;;;;;19.22;86.40;99209.64;1703660;83;21624;-67
2023/06/29 09:19:26;;;;;;;5.30;3.25;;;;;;;19.39;84.80;99209.29;1717843;83;21185;-67
2023/06/29 09:21:58;;;;;;;3.50;2.77;;;;;;;19.57;85.43;99203.15;1779705;80;21538;-68
2023/06/29 09:24:30;;;;;;;3.58;2.50;;;;;;;19.80;84.95;99207.19;1715930;83;21222;-67
2023/06/29 09:27:00;;;;;;;4.15;3.15;;;;;;;20.01;82.83;99212.05;1744768;80;21091;-68
2023/06/29 09:29:29;;;;;;;11.15;3.90;;;;;;;20.11;80.03;99216.98;1714366;83;21667;-71
2023/06/29 09:31:58;;;;;;;5.78;3.55;;;;;;;20.12;81.42;99252.58;1779957;80;21119;-68
2023/06/29 09:34:27;;;;;;;5.22;3.12;;;;;;;19.55;80.83;99238.73;1715797;83;21154;-66
2023/06/29 09:36:56;;;;;;;7.75;4.10;;;;;;;18.91;83.24;99234.72;1713704;83;21626;-68
2023/06/29 09:39:26;;;;;;;4.22;3.17;;;;;;;18.48;86.49;99236.09;1779339;80;21194;-68
2023/06/29 09:41:58;;;;;;;7.15;4.25;;;;;;;18.18;89.04;99234.13;1715517;83;21190;-67
2023/06/29 09:44:27;;;;;;;4.78;3.75;;;;;;;18.00;91.54;99238.25;1779478;80;21107;-66
2023/06/29 09:47:06;;;;;;;7.03;5.03;;;;;;;17.85;93.23;99229.09;1716047;83;21202;-66
2023/06/29 09:49:50;;;;;;;5.33;4.17;;;;;;;17.82;95.07;99226.86;1714129;83;21218;-67
2023/06/29 09:52:19;;;;;;;4.92;3.90;;;;;;;17.86;97.17;99224.66;1747658;80;21142;-69
2023/06/29 09:54:49;;;;;;;7.67;4.90;;;;;;;17.95;98.50;99219.41;1701252;83;21206;-69
2023/06/29 09:57:18;;;;;;;7.15;4.83;;;;;;;18.01;98.31;99222.46;1779774;80;21558;-67
2023/06/29 09:59:47;;;;;;;4.78;4.22;;;;;;;18.12;99.40;99228.30;1716100;83;21194;-68
2023/06/29 10:02:18;;;;;;;4.72;3.80;;;;;;;18.24;99.77;99223.89;1773192;80;21150;-67
2023/06/29 10:04:47;;;;;;;7.95;4.20;;;;;;;18.34;99.54;99214.19;1774693;80;21134;-66
2023/06/29 10:07:16;;;;;;;6.17;4.00;;;;;;;18.42;98.22;99212.80;1777472;80;21115;-66
2023/06/29 10:09:50;;;;;;;6.47;4.00;;;;;;;18.44;96.58;99218.34;1773756;80;21535;-66
2023/06/29 10:12:19;;;;;;;5.92;4.35;;;;;;;18.47;95.82;99210.86;1775768;80;21146;-67
2023/06/29 10:14:49;;;;;;;6.55;4.30;;;;;;;18.55;96.78;99203.36;1746704;80;21174;-66
2023/06/29 10:17:34;;;;;;;5.78;3.90;;;;;;;18.72;96.89;99201.70;1775601;80;21664;-69
2023/06/29 10:20:00;;;;;;;5.42;4.20;;;;;;;18.85;96.26;99198.34;1776830;80;21099;-69
2023/06/29 10:22:30;;;;;;;4.80;3.50;;;;;;;18.97;95.42;99200.84;1774316;80;21571;-68
2023/06/29 10:25:04;;;;;;;6.72;3.40;;;;;;;19.06;93.69;99201.92;1778967;80;21126;-68
2023/06/29 10:27:36;;;;;;;4.05;3.22;;;;;;;19.07;89.98;99200.80;1747299;81;21147;-69
2023/06/29 10:30:06;;;;;;;6.00;5.05;;;;;;;19.07;87.58;99204.14;1732131;81;21573;-68
2023/06/29 10:32:38;;;;;;;5.25;3.40;;;;;;;19.06;86.90;99196.36;1774435;80;21606;-68
2023/06/29 10:35:14;;;;;;;5.08;3.80;;;;;;;19.12;87.75;99189.68;1774265;80;21115;-67
2023/06/29 10:37:48;;;;;;;5.83;3.05;;;;;;;19.25;89.06;99193.23;1769169;81;21147;-67
2023/06/29 10:40:20;;;;;;;4.95;3.58;;;;;;;19.40;87.34;99186.78;1775333;80;22056;-67
2023/06/29 10:42:51;;;;;;;5.85;3.50;;;;;;;19.51;85.17;99188.98;1774364;80;21550;-66
2023/06/29 10:45:25;;;;;;;3.17;2.80;;;;;;;19.63;85.09;99183.95;1771761;80;21551;-66
2023/06/29 10:48:01;;;;;;;4.67;3.27;;;;;;;19.72;84.22;99183.61;1773820;80;21115;-66
2023/06/29 10:50:45;;;;;;;5.35;3.12;;;;;;;19.78;81.94;99181.62;1775868;80;21155;-67
2023/06/29 10:53:16;;;;;;;3.87;2.30;;;;;;;19.82;80.44;99180.77;1774229;80;21194;-67
2023/06/29 10:55:54;;;;;;;5.33;2.90;;;;;;;19.86;77.29;99163.78;1774382;80;21636;-67
2023/06/29 10:58:29;;;;;;;6.45;2.77;;;;;;;19.84;76.22;99171.58;1772589;80;21170;-67
2023/06/29 11:00:59;;;;;;;4.35;2.60;;;;;;;19.89;75.78;99162.37;1780262;80;21617;-65
2023/06/29 11:03:30;;;;;;;4.53;2.90;;;;;;;19.87;74.24;99162.66;1806274;79;21553;-65
2023/06/29 11:05:58;;;;;;;3.52;2.60;;;;;;;19.87;74.76;99162.66;1810074;79;21107;-67
2023/06/29 11:08:27;;;;;;;3.92;2.50;;;;;;;19.94;73.49;99164.55;1717960;82;21186;-66
2023/06/29 11:11:00;;;;;;;6.97;4.03;;;;;;;20.02;73.93;99166.45;1814796;79;21198;-67
2023/06/29 11:13:29;;;;;;;5.00;2.52;;;;;;;20.07;73.16;99163.06;1811914;79;21115;-66
2023/06/29 11:15:58;;;;;;;3.90;2.37;;;;;;;20.09;71.23;99169.16;1783952;79;21111;-67
2023/06/29 11:18:32;;;;;;;3.30;2.80;;;;;;;20.20;71.63;99183.85;1734698;82;21851;-67
2023/06/29 11:21:02;;;;;;;7.50;2.70;;;;;;;20.36;70.28;99174.25;1806144;79;21279;-64
2023/06/29 11:23:33;;;;;;;3.83;2.67;;;;;;;20.46;70.35;99173.36;1805965;79;21210;-68
2023/06/29 11:26:07;;;;;;;3.80;2.12;;;;;;;20.58;70.80;99188.55;1811485;79;21177;-66
2023/06/29 11:28:37;;;;;;;3.20;2.30;;;;;;;20.72;67.58;99171.16;1736491;82;21159;-66
2023/06/29 11:31:06;;;;;;;4.28;2.83;;;;;;;20.77;65.85;99185.02;1802599;79;21135;-66
2023/06/29 11:33:42;;;;;;;8.23;3.60;;;;;;;20.76;66.79;99199.50;1805076;79;21028;-66
2023/06/29 11:36:36;;;;;;;7.78;3.52;;;;;;;20.70;67.61;99194.28;1801453;79;21039;-68
2023/06/29 11:39:09;;;;;;;6.75;3.60;;;;;;;20.53;70.82;99202.50;1737530;82;21087;-66
2023/06/29 11:41:41;;;;;;;6.55;2.60;;;;;;;20.31;72.04;99206.29;1805926;79;21026;-67
2023/06/29 11:44:10;;;;;;;6.75;2.92;;;;;;;20.02;71.78;99210.94;1809064;79;21106;-66
2023/06/29 11:46:44;;;;;;;9.33;3.40;;;;;;;19.74;72.24;99212.51;1805223;79;21032;-67